sensor_id;sensor_type;location;lat;lon;timestamp;temperature;humidity
666;DHT22;315;48.738;9.126;2023-04-03T00:01:06;4.80;99.90
666;DHT22;315;48.738;9.126;2023-04-03T00:03:32;4.80;99.90
666;DHT22;315;48.738;9.126;2023-04-03T00:05:58;4.90;99.90
666;DHT22;315;48.738;9.126;2023-04-03T00:08:24;4.90;99.90
666;DHT22;315;48.738;9.126;2023-04-03T00:10:49;4.90;99.90
666;DHT22;315;48.738;9.126;2023-04-03T00:13:15;4.90;99.90
666;DHT22;315;48.738;9.126;2023-04-03T00:15:41;4.90;99.90
666;DHT22;315;48.738;9.126;2023-04-03T00:18:07;5.00;99.90
666;DHT22;315;48.738;9.126;2023-04-03T00:20:33;5.00;99.90
666;DHT22;315;48.738;9.126;2023-04-03T00:22:58;4.90;99.90
666;DHT22;315;48.738;9.126;2023-04-03T00:25:24;5.00;99.90
666;DHT22;315;48.738;9.126;2023-04-03T00:27:50;5.00;99.90
666;DHT22;315;48.738;9.126;2023-04-03T00:30:18;5.00;99.90
666;DHT22;315;48.738;9.126;2023-04-03T00:32:43;5.00;99.90
666;DHT22;315;48.738;9.126;2023-04-03T00:35:09;4.90;99.90
666;DHT22;315;48.738;9.126;2023-04-03T00:37:35;4.90;99.90
666;DHT22;315;48.738;9.126;2023-04-03T00:40:01;5.00;99.90
666;DHT22;315;48.738;9.126;2023-04-03T00:42:28;5.00;99.90
666;DHT22;315;48.738;9.126;2023-04-03T00:47:23;4.90;99.90
666;DHT22;315;48.738;9.126;2023-04-03T00:49:50;4.70;99.90
666;DHT22;315;48.738;9.126;2023-04-03T00:52:19;4.60;99.90
666;DHT22;315;48.738;9.126;2023-04-03T00:54:46;4.60;99.90
666;DHT22;315;48.738;9.126;2023-04-03T00:57:12;4.50;99.90
666;DHT22;315;48.738;9.126;2023-04-03T00:59:46;4.50;99.90
666;DHT22;315;48.738;9.126;2023-04-03T01:02:13;4.50;99.90
666;DHT22;315;48.738;9.126;2023-04-03T01:04:41;4.40;99.90
666;DHT22;315;48.738;9.126;2023-04-03T01:07:18;4.50;99.90
666;DHT22;315;48.738;9.126;2023-04-03T01:09:48;4.60;99.90
666;DHT22;315;48.738;9.126;2023-04-03T01:12:21;4.70;99.90
666;DHT22;315;48.738;9.126;2023-04-03T01:14:50;4.70;99.90
666;DHT22;315;48.738;9.126;2023-04-03T01:17:34;4.70;99.90
666;DHT22;315;48.738;9.126;2023-04-03T01:22:45;4.70;99.90
666;DHT22;315;48.738;9.126;2023-04-03T01:25:15;4.70;99.90
666;DHT22;315;48.738;9.126;2023-04-03T01:27:41;4.60;99.90
666;DHT22;315;48.738;9.126;2023-04-03T01:30:07;4.60;99.90
666;DHT22;315;48.738;9.126;2023-04-03T01:32:33;4.60;99.90
666;DHT22;315;48.738;9.126;2023-04-03T01:34:58;4.60;99.90
666;DHT22;315;48.738;9.126;2023-04-03T01:37:24;4.70;99.90
666;DHT22;315;48.738;9.126;2023-04-03T01:39:49;4.70;99.90
666;DHT22;315;48.738;9.126;2023-04-03T01:42:15;4.70;99.90
666;DHT22;315;48.738;9.126;2023-04-03T01:44:41;4.60;99.90
666;DHT22;315;48.738;9.126;2023-04-03T01:47:07;4.60;99.90
666;DHT22;315;48.738;9.126;2023-04-03T01:49:32;4.50;99.90
666;DHT22;315;48.738;9.126;2023-04-03T01:51:58;4.50;99.90
666;DHT22;315;48.738;9.126;2023-04-03T01:54:23;4.60;99.90
666;DHT22;315;48.738;9.126;2023-04-03T01:56:49;4.60;99.90
666;DHT22;315;48.738;9.126;2023-04-03T01:59:14;4.60;99.90
666;DHT22;315;48.738;9.126;2023-04-03T02:01:42;4.70;99.90
666;DHT22;315;48.738;9.126;2023-04-03T02:04:09;4.60;99.90
666;DHT22;315;48.738;9.126;2023-04-03T02:06:34;4.70;99.90
666;DHT22;315;48.738;9.126;2023-04-03T02:09:00;4.60;99.90
666;DHT22;315;48.738;9.126;2023-04-03T02:11:25;4.60;99.90
666;DHT22;315;48.738;9.126;2023-04-03T02:13:51;4.60;99.90
666;DHT22;315;48.738;9.126;2023-04-03T02:16:16;4.60;99.90
666;DHT22;315;48.738;9.126;2023-04-03T02:18:42;4.70;99.90
666;DHT22;315;48.738;9.126;2023-04-03T02:21:07;4.60;99.90
666;DHT22;315;48.738;9.126;2023-04-03T02:23:33;4.60;99.90
666;DHT22;315;48.738;9.126;2023-04-03T02:26:10;4.60;99.90
666;DHT22;315;48.738;9.126;2023-04-03T02:28:36;4.60;99.90
666;DHT22;315;48.738;9.126;2023-04-03T02:31:02;4.70;99.90
666;DHT22;315;48.738;9.126;2023-04-03T02:33:28;4.70;99.90
666;DHT22;315;48.738;9.126;2023-04-03T02:35:55;4.70;99.90
666;DHT22;315;48.738;9.126;2023-04-03T02:38:21;4.70;99.90
666;DHT22;315;48.738;9.126;2023-04-03T02:40:47;4.70;99.90
666;DHT22;315;48.738;9.126;2023-04-03T02:43:13;4.60;99.90
666;DHT22;315;48.738;9.126;2023-04-03T02:45:38;4.60;99.90
666;DHT22;315;48.738;9.126;2023-04-03T02:48:04;4.60;99.90
666;DHT22;315;48.738;9.126;2023-04-03T02:50:30;4.70;99.90
666;DHT22;315;48.738;9.126;2023-04-03T02:52:55;4.70;99.90
666;DHT22;315;48.738;9.126;2023-04-03T02:55:21;4.60;99.90
666;DHT22;315;48.738;9.126;2023-04-03T02:57:47;4.60;99.90
666;DHT22;315;48.738;9.126;2023-04-03T03:00:12;4.60;99.90
666;DHT22;315;48.738;9.126;2023-04-03T03:02:38;4.60;99.90
666;DHT22;315;48.738;9.126;2023-04-03T03:05:04;4.60;99.90
666;DHT22;315;48.738;9.126;2023-04-03T03:07:30;4.50;99.90
666;DHT22;315;48.738;9.126;2023-04-03T03:09:55;4.50;99.90
666;DHT22;315;48.738;9.126;2023-04-03T03:12:21;4.50;99.90
666;DHT22;315;48.738;9.126;2023-04-03T03:14:47;4.40;99.90
666;DHT22;315;48.738;9.126;2023-04-03T03:17:13;4.30;99.90
666;DHT22;315;48.738;9.126;2023-04-03T03:19:39;4.30;99.90
666;DHT22;315;48.738;9.126;2023-04-03T03:22:04;4.20;99.90
666;DHT22;315;48.738;9.126;2023-04-03T03:24:30;4.10;99.90
666;DHT22;315;48.738;9.126;2023-04-03T03:26:55;4.20;99.90
666;DHT22;315;48.738;9.126;2023-04-03T03:29:21;4.10;99.90
666;DHT22;315;48.738;9.126;2023-04-03T03:31:46;4.10;99.90
666;DHT22;315;48.738;9.126;2023-04-03T03:34:12;4.10;99.90
666;DHT22;315;48.738;9.126;2023-04-03T03:36:38;4.10;99.90
666;DHT22;315;48.738;9.126;2023-04-03T03:39:03;4.10;99.90
666;DHT22;315;48.738;9.126;2023-04-03T03:41:29;4.10;99.90
666;DHT22;315;48.738;9.126;2023-04-03T03:43:54;4.10;99.90
666;DHT22;315;48.738;9.126;2023-04-03T03:46:20;4.10;99.90
666;DHT22;315;48.738;9.126;2023-04-03T03:48:46;4.10;99.90
666;DHT22;315;48.738;9.126;2023-04-03T03:51:11;4.10;99.90
666;DHT22;315;48.738;9.126;2023-04-03T03:53:37;4.20;99.90
666;DHT22;315;48.738;9.126;2023-04-03T03:56:04;4.20;99.90
666;DHT22;315;48.738;9.126;2023-04-03T03:58:30;4.20;99.90
666;DHT22;315;48.738;9.126;2023-04-03T04:00:55;4.20;99.90
666;DHT22;315;48.738;9.126;2023-04-03T04:03:21;4.30;99.90
666;DHT22;315;48.738;9.126;2023-04-03T04:05:46;4.30;99.90
666;DHT22;315;48.738;9.126;2023-04-03T04:08:12;4.20;99.90
666;DHT22;315;48.738;9.126;2023-04-03T04:10:38;4.20;99.90
666;DHT22;315;48.738;9.126;2023-04-03T04:13:04;4.20;99.90
666;DHT22;315;48.738;9.126;2023-04-03T04:15:29;4.10;99.90
666;DHT22;315;48.738;9.126;2023-04-03T04:17:56;4.10;99.90
666;DHT22;315;48.738;9.126;2023-04-03T04:20:22;4.10;99.90
666;DHT22;315;48.738;9.126;2023-04-03T04:22:47;4.10;99.90
666;DHT22;315;48.738;9.126;2023-04-03T04:25:13;4.00;99.90
666;DHT22;315;48.738;9.126;2023-04-03T04:27:39;4.00;99.90
666;DHT22;315;48.738;9.126;2023-04-03T04:30:05;4.00;99.90
666;DHT22;315;48.738;9.126;2023-04-03T04:32:31;4.00;99.90
666;DHT22;315;48.738;9.126;2023-04-03T04:34:57;4.00;99.90
666;DHT22;315;48.738;9.126;2023-04-03T04:37:22;4.00;99.90
666;DHT22;315;48.738;9.126;2023-04-03T04:39:48;4.00;99.90
666;DHT22;315;48.738;9.126;2023-04-03T04:42:13;3.90;99.90
666;DHT22;315;48.738;9.126;2023-04-03T04:44:39;4.00;99.90
666;DHT22;315;48.738;9.126;2023-04-03T04:47:05;4.00;99.90
666;DHT22;315;48.738;9.126;2023-04-03T04:49:30;4.00;99.90
666;DHT22;315;48.738;9.126;2023-04-03T04:51:56;4.00;99.90
666;DHT22;315;48.738;9.126;2023-04-03T04:54:21;4.10;99.90
666;DHT22;315;48.738;9.126;2023-04-03T04:56:47;4.10;99.90
666;DHT22;315;48.738;9.126;2023-04-03T04:59:12;4.10;99.90
666;DHT22;315;48.738;9.126;2023-04-03T05:01:38;4.10;99.90
666;DHT22;315;48.738;9.126;2023-04-03T05:04:04;4.10;99.90
666;DHT22;315;48.738;9.126;2023-04-03T05:06:29;4.00;99.90
666;DHT22;315;48.738;9.126;2023-04-03T05:08:57;4.00;99.90
666;DHT22;315;48.738;9.126;2023-04-03T05:11:22;4.00;99.90
666;DHT22;315;48.738;9.126;2023-04-03T05:13:48;4.00;99.90
666;DHT22;315;48.738;9.126;2023-04-03T05:16:14;4.00;99.90
666;DHT22;315;48.738;9.126;2023-04-03T05:18:39;4.10;99.90
666;DHT22;315;48.738;9.126;2023-04-03T05:21:05;4.10;99.90
666;DHT22;315;48.738;9.126;2023-04-03T05:23:30;4.10;99.90
666;DHT22;315;48.738;9.126;2023-04-03T05:25:56;4.20;99.90
666;DHT22;315;48.738;9.126;2023-04-03T05:28:21;4.20;99.90
666;DHT22;315;48.738;9.126;2023-04-03T05:30:56;4.20;99.90
666;DHT22;315;48.738;9.126;2023-04-03T05:33:23;4.20;99.90
666;DHT22;315;48.738;9.126;2023-04-03T05:35:49;4.20;99.90
666;DHT22;315;48.738;9.126;2023-04-03T05:38:14;4.20;99.90
666;DHT22;315;48.738;9.126;2023-04-03T05:40:40;4.20;99.90
666;DHT22;315;48.738;9.126;2023-04-03T05:43:06;4.30;99.90
666;DHT22;315;48.738;9.126;2023-04-03T05:45:31;4.40;99.90
666;DHT22;315;48.738;9.126;2023-04-03T05:47:57;4.60;99.90
666;DHT22;315;48.738;9.126;2023-04-03T05:50:22;4.80;99.90
666;DHT22;315;48.738;9.126;2023-04-03T05:52:49;4.90;99.90
666;DHT22;315;48.738;9.126;2023-04-03T05:55:16;5.00;99.90
666;DHT22;315;48.738;9.126;2023-04-03T05:57:41;5.00;99.90
666;DHT22;315;48.738;9.126;2023-04-03T06:00:08;4.90;99.90
666;DHT22;315;48.738;9.126;2023-04-03T06:02:38;4.90;99.90
666;DHT22;315;48.738;9.126;2023-04-03T06:05:04;5.00;99.90
666;DHT22;315;48.738;9.126;2023-04-03T06:07:29;5.00;99.90
666;DHT22;315;48.738;9.126;2023-04-03T06:09:56;5.00;99.90
666;DHT22;315;48.738;9.126;2023-04-03T06:12:23;5.20;99.90
666;DHT22;315;48.738;9.126;2023-04-03T06:14:48;5.20;99.90
666;DHT22;315;48.738;9.126;2023-04-03T06:17:15;5.10;99.90
666;DHT22;315;48.738;9.126;2023-04-03T06:19:42;5.10;99.90
666;DHT22;315;48.738;9.126;2023-04-03T06:22:07;5.10;99.90
666;DHT22;315;48.738;9.126;2023-04-03T06:24:33;5.10;99.90
666;DHT22;315;48.738;9.126;2023-04-03T06:26:58;5.10;99.90
666;DHT22;315;48.738;9.126;2023-04-03T06:29:24;5.00;99.90
666;DHT22;315;48.738;9.126;2023-04-03T06:31:50;5.00;99.90
666;DHT22;315;48.738;9.126;2023-04-03T06:34:16;5.10;99.90
666;DHT22;315;48.738;9.126;2023-04-03T06:36:42;5.10;99.90
666;DHT22;315;48.738;9.126;2023-04-03T06:39:13;5.10;99.90
666;DHT22;315;48.738;9.126;2023-04-03T06:41:39;5.00;99.90
666;DHT22;315;48.738;9.126;2023-04-03T06:44:05;5.10;99.90
666;DHT22;315;48.738;9.126;2023-04-03T06:46:30;5.20;99.90
666;DHT22;315;48.738;9.126;2023-04-03T06:48:56;5.30;99.90
666;DHT22;315;48.738;9.126;2023-04-03T06:51:27;5.30;99.90
666;DHT22;315;48.738;9.126;2023-04-03T06:53:54;5.30;99.90
666;DHT22;315;48.738;9.126;2023-04-03T06:56:21;5.40;99.90
666;DHT22;315;48.738;9.126;2023-04-03T06:58:46;5.30;99.90
666;DHT22;315;48.738;9.126;2023-04-03T07:01:13;5.50;99.90
666;DHT22;315;48.738;9.126;2023-04-03T07:03:40;5.30;99.90
666;DHT22;315;48.738;9.126;2023-04-03T07:06:07;5.40;99.90
666;DHT22;315;48.738;9.126;2023-04-03T07:08:33;5.40;99.90
666;DHT22;315;48.738;9.126;2023-04-03T07:10:59;5.40;99.90
666;DHT22;315;48.738;9.126;2023-04-03T07:13:25;5.30;99.90
666;DHT22;315;48.738;9.126;2023-04-03T07:15:52;5.30;99.90
666;DHT22;315;48.738;9.126;2023-04-03T07:18:17;5.40;99.90
666;DHT22;315;48.738;9.126;2023-04-03T07:20:43;5.50;99.90
666;DHT22;315;48.738;9.126;2023-04-03T07:23:09;5.50;99.90
666;DHT22;315;48.738;9.126;2023-04-03T07:25:35;5.60;99.90
666;DHT22;315;48.738;9.126;2023-04-03T07:28:01;5.60;99.90
666;DHT22;315;48.738;9.126;2023-04-03T07:30:27;5.70;99.90
666;DHT22;315;48.738;9.126;2023-04-03T07:32:53;5.90;99.90
666;DHT22;315;48.738;9.126;2023-04-03T07:35:18;5.90;99.90
666;DHT22;315;48.738;9.126;2023-04-03T07:37:44;6.20;99.90
666;DHT22;315;48.738;9.126;2023-04-03T07:40:10;6.40;99.90
666;DHT22;315;48.738;9.126;2023-04-03T07:42:35;6.50;99.90
666;DHT22;315;48.738;9.126;2023-04-03T07:45:03;6.50;99.90
666;DHT22;315;48.738;9.126;2023-04-03T07:47:29;6.50;99.90
666;DHT22;315;48.738;9.126;2023-04-03T07:49:55;6.50;99.90
666;DHT22;315;48.738;9.126;2023-04-03T07:52:22;6.60;99.90
666;DHT22;315;48.738;9.126;2023-04-03T07:54:48;6.50;99.90
666;DHT22;315;48.738;9.126;2023-04-03T07:57:14;6.60;99.90
666;DHT22;315;48.738;9.126;2023-04-03T07:59:40;6.80;99.90
666;DHT22;315;48.738;9.126;2023-04-03T08:02:11;6.90;99.90
666;DHT22;315;48.738;9.126;2023-04-03T08:04:37;7.00;99.90
666;DHT22;315;48.738;9.126;2023-04-03T08:07:02;7.10;99.90
666;DHT22;315;48.738;9.126;2023-04-03T08:09:28;7.20;99.90
666;DHT22;315;48.738;9.126;2023-04-03T08:11:53;7.20;99.90
666;DHT22;315;48.738;9.126;2023-04-03T08:14:19;7.40;99.90
666;DHT22;315;48.738;9.126;2023-04-03T08:16:46;7.30;99.90
666;DHT22;315;48.738;9.126;2023-04-03T08:19:12;7.00;99.90
666;DHT22;315;48.738;9.126;2023-04-03T08:21:40;7.00;99.90
666;DHT22;315;48.738;9.126;2023-04-03T08:24:07;7.00;99.90
666;DHT22;315;48.738;9.126;2023-04-03T08:26:32;7.20;99.90
666;DHT22;315;48.738;9.126;2023-04-03T08:28:58;7.30;99.90
666;DHT22;315;48.738;9.126;2023-04-03T08:31:23;7.50;99.90
666;DHT22;315;48.738;9.126;2023-04-03T08:33:49;7.50;99.90
666;DHT22;315;48.738;9.126;2023-04-03T08:36:26;7.50;99.90
666;DHT22;315;48.738;9.126;2023-04-03T08:38:53;7.60;99.90
666;DHT22;315;48.738;9.126;2023-04-03T08:41:34;7.60;99.90
666;DHT22;315;48.738;9.126;2023-04-03T08:52:09;7.80;99.90
666;DHT22;315;48.738;9.126;2023-04-03T08:54:53;7.80;99.90
666;DHT22;315;48.738;9.126;2023-04-03T08:57:33;7.90;99.90
666;DHT22;315;48.738;9.126;2023-04-03T09:00:01;8.20;99.90
666;DHT22;315;48.738;9.126;2023-04-03T09:02:35;8.20;99.90
666;DHT22;315;48.738;9.126;2023-04-03T09:05:17;8.50;99.90
666;DHT22;315;48.738;9.126;2023-04-03T09:07:49;8.70;99.90
666;DHT22;315;48.738;9.126;2023-04-03T09:10:24;8.90;99.90
666;DHT22;315;48.738;9.126;2023-04-03T09:13:13;9.10;99.90
666;DHT22;315;48.738;9.126;2023-04-03T09:15:44;9.30;99.90
666;DHT22;315;48.738;9.126;2023-04-03T09:18:23;9.60;99.90
666;DHT22;315;48.738;9.126;2023-04-03T09:21:20;9.70;99.90
666;DHT22;315;48.738;9.126;2023-04-03T09:23:53;10.10;99.90
666;DHT22;315;48.738;9.126;2023-04-03T09:26:24;10.20;99.90
666;DHT22;315;48.738;9.126;2023-04-03T09:28:57;10.20;99.90
666;DHT22;315;48.738;9.126;2023-04-03T09:31:27;10.30;99.90
666;DHT22;315;48.738;9.126;2023-04-03T09:33:58;10.20;99.90
666;DHT22;315;48.738;9.126;2023-04-03T09:36:42;10.00;99.90
666;DHT22;315;48.738;9.126;2023-04-03T09:39:17;9.90;99.90
666;DHT22;315;48.738;9.126;2023-04-03T09:44:26;9.50;99.90
666;DHT22;315;48.738;9.126;2023-04-03T09:46:52;9.10;99.90
666;DHT22;315;48.738;9.126;2023-04-03T09:49:18;9.20;99.90
666;DHT22;315;48.738;9.126;2023-04-03T09:51:45;9.20;99.90
666;DHT22;315;48.738;9.126;2023-04-03T09:54:37;9.30;99.90
666;DHT22;315;48.738;9.126;2023-04-03T09:57:16;9.60;99.90
666;DHT22;315;48.738;9.126;2023-04-03T09:59:59;9.60;99.90
666;DHT22;315;48.738;9.126;2023-04-03T10:04:55;9.20;99.90
666;DHT22;315;48.738;9.126;2023-04-03T10:07:35;9.20;99.90
666;DHT22;315;48.738;9.126;2023-04-03T10:10:17;8.80;99.90
666;DHT22;315;48.738;9.126;2023-04-03T10:12:43;8.30;99.90
666;DHT22;315;48.738;9.126;2023-04-03T10:15:17;8.30;99.90
666;DHT22;315;48.738;9.126;2023-04-03T10:17:57;8.30;99.90
666;DHT22;315;48.738;9.126;2023-04-03T10:20:37;8.20;99.90
666;DHT22;315;48.738;9.126;2023-04-03T10:23:33;8.10;99.90
666;DHT22;315;48.738;9.126;2023-04-03T10:26:17;8.20;99.90
666;DHT22;315;48.738;9.126;2023-04-03T10:34:43;7.60;99.90
666;DHT22;315;48.738;9.126;2023-04-03T10:37:29;7.50;99.90
666;DHT22;315;48.738;9.126;2023-04-03T10:45:53;7.80;99.90
666;DHT22;315;48.738;9.126;2023-04-03T10:48:33;7.90;99.90
666;DHT22;315;48.738;9.126;2023-04-03T10:51:35;7.80;99.90
666;DHT22;315;48.738;9.126;2023-04-03T10:54:11;7.60;99.90
666;DHT22;315;48.738;9.126;2023-04-03T10:59:33;7.30;99.90
666;DHT22;315;48.738;9.126;2023-04-03T11:02:11;7.30;99.90
666;DHT22;315;48.738;9.126;2023-04-03T11:04:40;7.40;99.90
666;DHT22;315;48.738;9.126;2023-04-03T11:09:44;7.30;99.90
666;DHT22;315;48.738;9.126;2023-04-03T11:12:28;7.30;99.90
666;DHT22;315;48.738;9.126;2023-04-03T11:14:56;7.20;99.90
666;DHT22;315;48.738;9.126;2023-04-03T11:17:41;7.30;99.90
666;DHT22;315;48.738;9.126;2023-04-03T11:20:20;7.30;99.90
666;DHT22;315;48.738;9.126;2023-04-03T11:22:57;7.20;99.90
666;DHT22;315;48.738;9.126;2023-04-03T11:25:25;7.10;99.90
666;DHT22;315;48.738;9.126;2023-04-03T11:27:59;7.10;99.90
666;DHT22;315;48.738;9.126;2023-04-03T11:30:54;7.20;99.90
666;DHT22;315;48.738;9.126;2023-04-03T11:36:08;7.50;99.90
666;DHT22;315;48.738;9.126;2023-04-03T11:38:38;7.50;99.90
666;DHT22;315;48.738;9.126;2023-04-03T11:41:07;7.40;99.90
666;DHT22;315;48.738;9.126;2023-04-03T11:43:37;7.30;99.90
666;DHT22;315;48.738;9.126;2023-04-03T11:46:06;7.10;99.90
666;DHT22;315;48.738;9.126;2023-04-03T11:53:39;7.00;99.90
666;DHT22;315;48.738;9.126;2023-04-03T12:01:55;7.50;99.90
666;DHT22;315;48.738;9.126;2023-04-03T12:04:24;7.70;99.90
666;DHT22;315;48.738;9.126;2023-04-03T12:07:13;7.80;99.90
666;DHT22;315;48.738;9.126;2023-04-03T12:12:34;8.20;99.90
666;DHT22;315;48.738;9.126;2023-04-03T12:15:19;8.20;99.90
666;DHT22;315;48.738;9.126;2023-04-03T12:17:46;8.20;99.90
666;DHT22;315;48.738;9.126;2023-04-03T12:23:34;8.10;99.90
666;DHT22;315;48.738;9.126;2023-04-03T12:26:18;7.90;99.90
666;DHT22;315;48.738;9.126;2023-04-03T12:28:45;7.80;99.90
666;DHT22;315;48.738;9.126;2023-04-03T12:31:12;7.80;99.90
666;DHT22;315;48.738;9.126;2023-04-03T12:47:28;8.00;99.90
666;DHT22;315;48.738;9.126;2023-04-03T12:49:55;8.20;99.90
666;DHT22;315;48.738;9.126;2023-04-03T12:55:18;8.60;99.90
666;DHT22;315;48.738;9.126;2023-04-03T12:57:45;8.60;98.70
666;DHT22;315;48.738;9.126;2023-04-03T13:02:55;8.30;98.90
666;DHT22;315;48.738;9.126;2023-04-03T13:05:21;8.20;98.30
666;DHT22;315;48.738;9.126;2023-04-03T13:08:13;8.20;98.90
666;DHT22;315;48.738;9.126;2023-04-03T13:13:17;8.30;97.90
666;DHT22;315;48.738;9.126;2023-04-03T13:15:46;8.50;97.90
666;DHT22;315;48.738;9.126;2023-04-03T13:20:56;9.10;96.40
666;DHT22;315;48.738;9.126;2023-04-03T13:23:22;9.30;95.40
666;DHT22;315;48.738;9.126;2023-04-03T13:25:49;9.70;93.50
666;DHT22;315;48.738;9.126;2023-04-03T13:28:22;10.10;93.00
666;DHT22;315;48.738;9.126;2023-04-03T13:30:56;11.20;91.20
666;DHT22;315;48.738;9.126;2023-04-03T13:33:26;12.20;85.00
666;DHT22;315;48.738;9.126;2023-04-03T13:36:00;12.70;79.50
666;DHT22;315;48.738;9.126;2023-04-03T13:38:29;13.30;75.70
666;DHT22;315;48.738;9.126;2023-04-03T13:41:00;14.40;70.40
666;DHT22;315;48.738;9.126;2023-04-03T13:43:30;14.00;67.50
666;DHT22;315;48.738;9.126;2023-04-03T13:46:23;13.40;65.80
666;DHT22;315;48.738;9.126;2023-04-03T13:48:51;12.20;71.30
666;DHT22;315;48.738;9.126;2023-04-03T13:53:47;10.90;75.40
666;DHT22;315;48.738;9.126;2023-04-03T13:58:58;10.10;79.40
666;DHT22;315;48.738;9.126;2023-04-03T14:01:24;9.70;77.80
666;DHT22;315;48.738;9.126;2023-04-03T14:03:59;9.40;80.90
666;DHT22;315;48.738;9.126;2023-04-03T14:06:25;9.40;81.30
666;DHT22;315;48.738;9.126;2023-04-03T14:08:51;9.50;80.20
666;DHT22;315;48.738;9.126;2023-04-03T14:11:35;9.80;81.30
666;DHT22;315;48.738;9.126;2023-04-03T14:14:05;10.10;79.20
666;DHT22;315;48.738;9.126;2023-04-03T14:16:35;10.00;77.10
666;DHT22;315;48.738;9.126;2023-04-03T14:19:02;9.80;78.30
666;DHT22;315;48.738;9.126;2023-04-03T14:21:28;9.70;80.20
666;DHT22;315;48.738;9.126;2023-04-03T14:23:54;9.50;79.30
666;DHT22;315;48.738;9.126;2023-04-03T14:26:22;8.90;80.90
666;DHT22;315;48.738;9.126;2023-04-03T14:28:50;8.70;82.10
666;DHT22;315;48.738;9.126;2023-04-03T14:31:17;8.50;84.40
666;DHT22;315;48.738;9.126;2023-04-03T14:33:43;8.50;86.10
666;DHT22;315;48.738;9.126;2023-04-03T14:38:43;8.40;89.20
666;DHT22;315;48.738;9.126;2023-04-03T14:41:12;8.50;88.00
666;DHT22;315;48.738;9.126;2023-04-03T14:43:37;8.50;87.70
666;DHT22;315;48.738;9.126;2023-04-03T14:46:04;8.40;87.30
666;DHT22;315;48.738;9.126;2023-04-03T14:48:30;8.40;88.30
666;DHT22;315;48.738;9.126;2023-04-03T14:50:56;8.50;88.90
666;DHT22;315;48.738;9.126;2023-04-03T14:53:22;8.60;88.40
666;DHT22;315;48.738;9.126;2023-04-03T14:55:50;8.70;87.10
666;DHT22;315;48.738;9.126;2023-04-03T14:58:18;8.90;87.10
666;DHT22;315;48.738;9.126;2023-04-03T15:00:44;8.90;81.70
666;DHT22;315;48.738;9.126;2023-04-03T15:03:14;9.00;80.70
666;DHT22;315;48.738;9.126;2023-04-03T15:05:41;8.90;81.30
666;DHT22;315;48.738;9.126;2023-04-03T15:08:17;8.90;81.20
666;DHT22;315;48.738;9.126;2023-04-03T15:10:43;8.70;81.60
666;DHT22;315;48.738;9.126;2023-04-03T15:13:11;8.40;83.20
666;DHT22;315;48.738;9.126;2023-04-03T15:15:37;8.20;83.80
666;DHT22;315;48.738;9.126;2023-04-03T15:18:03;8.00;85.00
666;DHT22;315;48.738;9.126;2023-04-03T15:20:29;8.00;85.00
666;DHT22;315;48.738;9.126;2023-04-03T15:22:56;8.00;85.10
666;DHT22;315;48.738;9.126;2023-04-03T15:25:22;8.10;85.10
666;DHT22;315;48.738;9.126;2023-04-03T15:27:48;8.10;84.60
666;DHT22;315;48.738;9.126;2023-04-03T15:30:17;8.20;85.00
666;DHT22;315;48.738;9.126;2023-04-03T15:32:43;8.30;83.10
666;DHT22;315;48.738;9.126;2023-04-03T15:35:09;8.20;82.80
666;DHT22;315;48.738;9.126;2023-04-03T15:37:34;8.20;82.50
666;DHT22;315;48.738;9.126;2023-04-03T15:40:00;8.30;82.80
666;DHT22;315;48.738;9.126;2023-04-03T15:42:26;8.30;82.20
666;DHT22;315;48.738;9.126;2023-04-03T15:44:51;8.20;83.00
666;DHT22;315;48.738;9.126;2023-04-03T15:47:17;8.20;85.80
666;DHT22;315;48.738;9.126;2023-04-03T15:49:43;8.20;79.90
666;DHT22;315;48.738;9.126;2023-04-03T15:52:09;8.00;79.30
666;DHT22;315;48.738;9.126;2023-04-03T15:54:34;7.90;81.70
666;DHT22;315;48.738;9.126;2023-04-03T15:57:00;7.80;83.20
666;DHT22;315;48.738;9.126;2023-04-03T15:59:25;7.70;84.60
666;DHT22;315;48.738;9.126;2023-04-03T16:01:51;7.70;83.70
666;DHT22;315;48.738;9.126;2023-04-03T16:04:18;7.60;84.00
666;DHT22;315;48.738;9.126;2023-04-03T16:06:43;7.60;85.30
666;DHT22;315;48.738;9.126;2023-04-03T16:09:09;7.50;84.70
666;DHT22;315;48.738;9.126;2023-04-03T16:11:35;7.40;84.40
666;DHT22;315;48.738;9.126;2023-04-03T16:14:04;7.40;84.90
666;DHT22;315;48.738;9.126;2023-04-03T16:16:30;7.50;84.70
666;DHT22;315;48.738;9.126;2023-04-03T16:18:55;7.50;84.70
666;DHT22;315;48.738;9.126;2023-04-03T16:21:21;7.60;84.60
666;DHT22;315;48.738;9.126;2023-04-03T16:23:47;7.60;82.90
666;DHT22;315;48.738;9.126;2023-04-03T16:26:13;7.70;83.50
666;DHT22;315;48.738;9.126;2023-04-03T16:28:39;7.60;81.10
666;DHT22;315;48.738;9.126;2023-04-03T16:31:06;7.50;82.20
666;DHT22;315;48.738;9.126;2023-04-03T16:33:32;7.40;80.70
666;DHT22;315;48.738;9.126;2023-04-03T16:35:58;7.20;81.80
666;DHT22;315;48.738;9.126;2023-04-03T16:38:24;7.20;82.00
666;DHT22;315;48.738;9.126;2023-04-03T16:40:50;7.20;81.80
666;DHT22;315;48.738;9.126;2023-04-03T16:43:17;7.00;81.50
666;DHT22;315;48.738;9.126;2023-04-03T16:45:43;6.90;81.80
666;DHT22;315;48.738;9.126;2023-04-03T16:48:08;6.80;83.40
666;DHT22;315;48.738;9.126;2023-04-03T16:50:34;6.80;82.80
666;DHT22;315;48.738;9.126;2023-04-03T16:52:59;6.70;82.90
666;DHT22;315;48.738;9.126;2023-04-03T16:55:25;6.70;82.10
666;DHT22;315;48.738;9.126;2023-04-03T16:57:50;6.80;83.80
666;DHT22;315;48.738;9.126;2023-04-03T17:00:16;6.90;84.50
666;DHT22;315;48.738;9.126;2023-04-03T17:02:42;7.00;85.70
666;DHT22;315;48.738;9.126;2023-04-03T17:05:08;7.00;81.70
666;DHT22;315;48.738;9.126;2023-04-03T17:07:33;7.00;82.60
666;DHT22;315;48.738;9.126;2023-04-03T17:09:59;7.00;83.50
666;DHT22;315;48.738;9.126;2023-04-03T17:12:25;7.10;85.50
666;DHT22;315;48.738;9.126;2023-04-03T17:14:51;7.10;85.40
666;DHT22;315;48.738;9.126;2023-04-03T17:17:21;7.10;85.30
666;DHT22;315;48.738;9.126;2023-04-03T17:19:47;7.10;85.50
666;DHT22;315;48.738;9.126;2023-04-03T17:22:13;7.00;85.90
666;DHT22;315;48.738;9.126;2023-04-03T17:24:39;7.00;86.90
666;DHT22;315;48.738;9.126;2023-04-03T17:27:05;7.00;87.90
666;DHT22;315;48.738;9.126;2023-04-03T17:29:30;6.90;87.50
666;DHT22;315;48.738;9.126;2023-04-03T17:31:56;6.90;87.30
666;DHT22;315;48.738;9.126;2023-04-03T17:34:21;6.90;88.10
666;DHT22;315;48.738;9.126;2023-04-03T17:36:47;6.80;88.40
666;DHT22;315;48.738;9.126;2023-04-03T17:39:13;6.80;86.90
666;DHT22;315;48.738;9.126;2023-04-03T17:41:38;6.70;86.00
666;DHT22;315;48.738;9.126;2023-04-03T17:44:04;6.60;87.20
666;DHT22;315;48.738;9.126;2023-04-03T17:46:30;6.50;87.50
666;DHT22;315;48.738;9.126;2023-04-03T17:48:57;6.50;89.00
666;DHT22;315;48.738;9.126;2023-04-03T17:51:27;6.40;88.50
666;DHT22;315;48.738;9.126;2023-04-03T17:53:52;6.40;88.90
666;DHT22;315;48.738;9.126;2023-04-03T17:56:20;6.30;90.10
666;DHT22;315;48.738;9.126;2023-04-03T17:58:47;6.30;89.00
666;DHT22;315;48.738;9.126;2023-04-03T18:01:49;6.30;90.10
666;DHT22;315;48.738;9.126;2023-04-03T18:04:07;6.30;89.80
666;DHT22;315;48.738;9.126;2023-04-03T18:09:06;6.20;89.70
666;DHT22;315;48.738;9.126;2023-04-03T18:11:33;6.20;90.60
666;DHT22;315;48.738;9.126;2023-04-03T18:14:00;6.20;90.40
666;DHT22;315;48.738;9.126;2023-04-03T18:16:26;6.10;90.80
666;DHT22;315;48.738;9.126;2023-04-03T18:18:52;6.00;90.80
666;DHT22;315;48.738;9.126;2023-04-03T18:21:17;5.90;91.30
666;DHT22;315;48.738;9.126;2023-04-03T18:23:50;5.80;92.10
666;DHT22;315;48.738;9.126;2023-04-03T18:26:17;5.80;92.60
666;DHT22;315;48.738;9.126;2023-04-03T18:28:45;5.80;92.80